EGWU

RAF Northholt

Airport
ICAO code
EGWU
IATA Code
NHT
Summary
ICAO Region
EUR
ICAO Territory
Location

Northolt, Middlesex, England,

Serving
Northolt
Elevation
124 ft
Coordinates
51° 33' 6" N , 0° 25' 6" W
KCC
Cfb
Metar
Observation
EGWU 171050Z 05007KT 9999 FEW030 BKN040 23/15 Q1012 NOSIG
Station
Northolt
Date/Time
2022-08-17 10:50:00
Wind direction
50°
Wind speed
07 kts
Lowest cloud amount
few clouds
Temperature
23°C
Dew point
15°C
Humidity
60%
QNH
1012 hPa
Weather condition
n/a

Description

RAF Northolt is a military airport available to non scheduled civil traffic by prior arrangement.

Climatology

Temperate Marine climate/Oceanic climate (Köppen climate classification Cfb). Moderately cool summer and comparatively warm winter with a temperature range of only 14°C. Prevailing south-westerly winds from the Atlantic Ocean.

Runways

Designator Length Width Surface Rops
7/25 1690 46 ASP Yes/Yes

Airport map

Aerial View

Airport accidents

SKYbrary Partners:

Safety knowledge contributed by: